Time,TemperatureF,DewpointF,PressureIn,WindDirection,WindDirectionDegrees,WindSpeedMPH,WindSpeedGustMPH,Humidity,HourlyPrecipIn,Conditions,Clouds,dailyrainin,SoftwareType,DateUTC
2013-05-27 00:01:00,56.4,43.5,30.26,SW,215,0.0,0.0,62,0.00,CLR,,0.00,WeatherDisplay:10.37,2013-05-27 04:01:00,
2013-05-27 00:02:00,56.3,42.6,30.26,West,260,1.0,3.5,60,0.00,CLR,,0.00,WeatherDisplay:10.37,2013-05-27 04:02:00,
2013-05-27 00:03:00,56.3,42.6,30.26,West,259,0.7,3.5,60,0.00,CLR,,0.00,WeatherDisplay:10.37,2013-05-27 04:03:00,
2013-05-27 00:08:00,56.0,44.0,30.26,East,82,0.0,1.2,64,0.00,CLR,,0.00,WeatherDisplay:10.37,2013-05-27 04:08:00,
2013-05-27 00:13:00,55.5,43.5,30.26,ENE,77,0.5,1.2,64,0.00,CLR,,0.00,WeatherDisplay:10.37,2013-05-27 04:13:00,
2013-05-27 00:18:00,54.9,44.5,30.26,NE,43,0.0,0.0,68,0.00,CLR,,0.00,WeatherDisplay:10.37,2013-05-27 04:18:00,
2013-05-27 00:23:00,54.4,44.8,30.26,NE,43,0.0,1.2,70,0.00,CLR,,0.00,WeatherDisplay:10.37,2013-05-27 04:23:00,
2013-05-27 00:28:00,53.9,44.7,30.26,NE,52,0.0,0.0,71,0.00,CLR,,0.00,WeatherDisplay:10.37,2013-05-27 04:28:00,
2013-05-27 00:33:00,53.7,43.8,30.27,NE,53,0.0,0.0,69,0.00,CLR,,0.00,WeatherDisplay:10.37,2013-05-27 04:33:00,
2013-05-27 00:38:00,53.4,44.2,30.27,NE,51,0.0,0.0,71,0.00,CLR,,0.00,WeatherDisplay:10.37,2013-05-27 04:38:00,
2013-05-27 00:43:00,53.0,44.2,30.26,NE,51,0.0,0.0,72,0.00,CLR,,0.00,WeatherDisplay:10.37,2013-05-27 04:43:00,
2013-05-27 00:48:00,52.8,44.7,30.27,NE,53,0.0,0.0,74,0.00,CLR,,0.00,WeatherDisplay:10.37,2013-05-27 04:48:00,
2013-05-27 00:53:00,52.5,43.7,30.27,NE,52,0.0,0.0,72,0.00,CLR,,0.00,WeatherDisplay:10.37,2013-05-27 04:53:00,
2013-05-27 00:58:00,52.2,43.8,30.27,NE,52,0.0,0.0,73,0.00,CLR,,0.00,WeatherDisplay:10.37,2013-05-27 04:58:00,
2013-05-27 01:03:00,52.0,43.6,30.27,NE,52,0.0,0.0,73,0.00,CLR,,0.00,WeatherDisplay:10.37,2013-05-27 05:03:00,
2013-05-27 01:08:00,51.8,44.1,30.27,NE,52,0.1,1.2,75,0.00,CLR,,0.00,WeatherDisplay:10.37,2013-05-27 05:08:00,
2013-05-27 01:13:00,52.0,43.6,30.27,NE,52,0.0,0.0,73,0.00,CLR,,0.00,WeatherDisplay:10.37,2013-05-27 05:13:00,
2013-05-27 01:18:00,52.1,44.1,30.27,NE,52,0.0,0.0,74,0.00,CLR,,0.00,WeatherDisplay:10.37,2013-05-27 05:18:00,
2013-05-27 01:23:00,51.9,44.2,30.27,NE,53,0.0,0.0,75,0.00,CLR,,0.00,WeatherDisplay:10.37,2013-05-27 05:23:00,
2013-05-27 01:28:00,51.7,43.7,30.27,NE,52,0.1,1.2,74,0.00,CLR,,0.00,WeatherDisplay:10.37,2013-05-27 05:28:00,
2013-05-27 01:33:00,51.7,43.3,30.27,NE,53,0.0,0.0,73,0.00,CLR,,0.00,WeatherDisplay:10.37,2013-05-27 05:33:00,
2013-05-27 01:38:00,51.5,43.8,30.27,NE,52,0.0,0.0,75,0.00,CLR,,0.00,WeatherDisplay:10.37,2013-05-27 05:38:00,
2013-05-27 01:43:00,51.2,44.2,30.27,NE,52,0.0,0.0,77,0.00,CLR,,0.00,WeatherDisplay:10.37,2013-05-27 05:43:00,
2013-05-27 01:48:00,51.1,43.4,30.27,NE,53,0.0,0.0,75,0.00,CLR,,0.00,WeatherDisplay:10.37,2013-05-27 05:48:00,
2013-05-27 01:53:00,50.9,44.3,30.27,NE,52,0.0,0.0,78,0.00,CLR,,0.00,WeatherDisplay:10.37,2013-05-27 05:53:00,
2013-05-27 01:58:00,50.5,43.6,30.27,NE,52,0.0,0.0,77,0.00,CLR,,0.00,WeatherDisplay:10.37,2013-05-27 05:58:00,
2013-05-27 02:03:00,50.2,43.3,30.28,NE,53,0.0,0.0,77,0.00,CLR,,0.00,WeatherDisplay:10.37,2013-05-27 06:03:00,
2013-05-27 02:08:00,50.0,43.4,30.27,NE,53,0.0,0.0,78,0.00,CLR,,0.00,WeatherDisplay:10.37,2013-05-27 06:08:00,
2013-05-27 02:13:00,49.8,43.5,30.27,NE,52,0.0,0.0,79,0.00,CLR,,0.00,WeatherDisplay:10.37,2013-05-27 06:13:00,
2013-05-27 02:18:00,49.6,43.4,30.27,NE,52,0.0,0.0,79,0.00,CLR,,0.00,WeatherDisplay:10.37,2013-05-27 06:18:00,
2013-05-27 02:23:00,49.7,42.8,30.27,ESE,113,0.0,1.2,77,0.00,CLR,,0.00,WeatherDisplay:10.37,2013-05-27 06:23:00,
2013-05-27 02:28:00,49.9,42.6,30.27,ESE,113,0.0,0.0,76,0.00,CLR,,0.00,WeatherDisplay:10.37,2013-05-27 06:28:00,
2013-05-27 02:33:00,50.2,42.6,30.27,ESE,103,0.0,0.0,75,0.00,CLR,,0.00,WeatherDisplay:10.37,2013-05-27 06:33:00,
2013-05-27 02:38:00,50.8,42.8,30.27,East,99,0.0,0.0,74,0.00,CLR,,0.00,WeatherDisplay:10.37,2013-05-27 06:38:00,
2013-05-27 02:43:00,51.4,42.7,30.27,East,98,0.0,0.0,72,0.00,CLR,,0.00,WeatherDisplay:10.37,2013-05-27 06:43:00,
2013-05-27 02:48:00,51.7,42.6,30.27,East,99,0.0,0.0,71,0.00,CLR,,0.00,WeatherDisplay:10.37,2013-05-27 06:48:00,
2013-05-27 02:53:00,52.0,42.5,30.27,East,99,0.0,0.0,70,0.00,CLR,,0.00,WeatherDisplay:10.37,2013-05-27 06:53:00,
2013-05-27 02:58:00,52.2,42.7,30.27,East,98,0.0,0.0,70,0.00,CLR,,0.00,WeatherDisplay:10.37,2013-05-27 06:58:00,
2013-05-27 03:03:00,52.4,43.6,30.27,East,99,0.0,0.0,72,0.00,CLR,,0.00,WeatherDisplay:10.37,2013-05-27 07:03:00,
2013-05-27 03:08:00,52.4,43.6,30.27,SW,236,0.0,0.0,72,0.00,CLR,,0.00,WeatherDisplay:10.37,2013-05-27 07:08:00,
2013-05-27 03:13:00,52.3,45.0,30.27,SW,235,0.0,0.0,76,0.00,CLR,,0.00,WeatherDisplay:10.37,2013-05-27 07:13:00,
2013-05-27 03:18:00,51.8,44.5,30.27,SW,235,0.0,0.0,76,0.00,CLR,,0.00,WeatherDisplay:10.37,2013-05-27 07:18:00,
2013-05-27 03:23:00,51.5,44.5,30.27,SW,235,0.0,0.0,77,0.00,CLR,,0.00,WeatherDisplay:10.37,2013-05-27 07:23:00,
2013-05-27 03:28:00,51.2,44.2,30.27,SW,235,0.0,0.0,77,0.00,CLR,,0.00,WeatherDisplay:10.37,2013-05-27 07:28:00,
2013-05-27 03:33:00,51.1,44.1,30.27,SW,235,0.0,0.0,77,0.00,CLR,,0.00,WeatherDisplay:10.37,2013-05-27 07:33:00,
2013-05-27 03:38:00,51.0,44.4,30.27,SW,235,0.0,0.0,78,0.00,CLR,,0.00,WeatherDisplay:10.37,2013-05-27 07:38:00,
2013-05-27 03:43:00,51.0,44.4,30.27,SW,235,0.0,0.0,78,0.00,CLR,,0.00,WeatherDisplay:10.37,2013-05-27 07:43:00,
2013-05-27 03:48:00,50.8,44.2,30.27,SW,235,0.0,0.0,78,0.00,CLR,,0.00,WeatherDisplay:10.37,2013-05-27 07:48:00,
2013-05-27 03:53:00,50.7,43.4,30.27,SW,235,0.0,0.0,76,0.00,CLR,,0.00,WeatherDisplay:10.37,2013-05-27 07:53:00,
2013-05-27 03:58:00,50.7,43.8,30.27,SW,236,0.0,0.0,77,0.00,CLR,,0.00,WeatherDisplay:10.37,2013-05-27 07:58:00,
2013-05-27 04:03:00,50.8,43.5,30.27,SW,235,0.0,0.0,76,0.00,CLR,,0.00,WeatherDisplay:10.37,2013-05-27 08:03:00,
2013-05-27 04:08:00,50.8,43.8,30.27,SW,235,0.0,0.0,77,0.00,CLR,,0.00,WeatherDisplay:10.37,2013-05-27 08:08:00,
2013-05-27 04:13:00,50.8,44.2,30.27,SW,235,0.0,0.0,78,0.00,CLR,,0.00,WeatherDisplay:10.37,2013-05-27 08:13:00,
2013-05-27 04:18:00,50.9,43.9,30.26,SW,235,0.0,0.0,77,0.00,CLR,,0.00,WeatherDisplay:10.37,2013-05-27 08:18:00,
2013-05-27 04:23:00,51.0,44.0,30.27,SW,235,0.0,0.0,77,0.00,CLR,,0.00,WeatherDisplay:10.37,2013-05-27 08:23:00,
2013-05-27 04:28:00,51.1,44.5,30.27,SW,235,0.0,0.0,78,0.00,CLR,,0.00,WeatherDisplay:10.37,2013-05-27 08:28:00,
2013-05-27 04:33:00,51.1,44.1,30.27,SW,235,0.0,0.0,77,0.00,CLR,,0.00,WeatherDisplay:10.37,2013-05-27 08:33:00,
2013-05-27 04:38:00,51.2,43.9,30.27,SW,235,0.0,0.0,76,0.00,CLR,,0.00,WeatherDisplay:10.37,2013-05-27 08:38:00,
2013-05-27 04:43:00,51.4,44.4,30.27,SW,235,0.0,0.0,77,0.00,CLR,,0.00,WeatherDisplay:10.37,2013-05-27 08:43:00,
2013-05-27 04:48:00,51.6,43.9,30.27,SW,227,0.0,0.0,75,0.00,CLR,,0.00,WeatherDisplay:10.37,2013-05-27 08:48:00,
2013-05-27 04:53:00,51.8,44.5,30.27,SW,227,0.0,0.0,76,0.00,CLR,,0.00,WeatherDisplay:10.37,2013-05-27 08:53:00,
2013-05-27 04:58:00,52.0,45.0,30.27,SW,227,0.0,0.0,77,0.00,CLR,,0.00,WeatherDisplay:10.37,2013-05-27 08:58:00,
2013-05-27 05:03:00,52.1,45.4,30.28,SW,228,0.0,0.0,78,0.00,OVC,,0.00,WeatherDisplay:10.37,2013-05-27 09:03:00,
2013-05-27 05:08:00,51.8,45.2,30.28,SW,228,0.0,0.0,78,0.00,OVC,,0.00,WeatherDisplay:10.37,2013-05-27 09:08:00,
2013-05-27 05:13:00,51.6,45.3,30.28,SW,227,0.0,0.0,79,0.00,OVC,,0.00,WeatherDisplay:10.37,2013-05-27 09:13:00,
2013-05-27 05:18:00,51.6,45.3,30.28,SW,228,0.0,0.0,79,0.00,OVC,,0.00,WeatherDisplay:10.37,2013-05-27 09:18:00,
2013-05-27 05:23:00,51.6,45.3,30.28,SW,228,0.0,0.0,79,0.00,OVC,,0.00,WeatherDisplay:10.37,2013-05-27 09:23:00,
2013-05-27 05:28:00,51.6,45.3,30.29,SW,227,0.0,0.0,79,0.00,OVC,,0.00,WeatherDisplay:10.37,2013-05-27 09:28:00,
2013-05-27 05:33:00,51.5,45.5,30.29,SW,228,0.0,0.0,80,0.00,OVC,,0.00,WeatherDisplay:10.37,2013-05-27 09:33:00,
2013-05-27 05:38:00,51.4,45.4,30.29,SW,227,0.0,0.0,80,0.00,OVC,,0.00,WeatherDisplay:10.37,2013-05-27 09:38:00,
2013-05-27 05:43:00,51.3,45.7,30.29,SW,228,0.0,0.0,81,0.00,OVC,,0.00,WeatherDisplay:10.37,2013-05-27 09:43:00,
2013-05-27 05:48:00,51.3,45.3,30.29,SW,228,0.0,0.0,80,0.00,OVC,,0.00,WeatherDisplay:10.37,2013-05-27 09:48:00,
2013-05-27 05:53:00,51.2,45.6,30.29,SW,228,0.0,0.0,81,0.00,OVC,,0.00,WeatherDisplay:10.37,2013-05-27 09:53:00,
2013-05-27 05:58:00,51.3,45.3,30.30,SW,228,0.0,0.0,80,0.00,OVC,,0.00,WeatherDisplay:10.37,2013-05-27 09:58:00,
2013-05-27 06:03:00,51.0,45.0,30.30,SW,227,0.0,0.0,80,0.00,BKN,,0.00,WeatherDisplay:10.37,2013-05-27 10:03:00,
2013-05-27 06:08:00,50.7,45.1,30.30,SW,228,0.0,0.0,81,0.00,BKN,,0.00,WeatherDisplay:10.37,2013-05-27 10:08:00,
2013-05-27 06:13:00,50.4,45.1,30.30,SW,228,0.0,0.0,82,0.00,BKN,,0.00,WeatherDisplay:10.37,2013-05-27 10:13:00,
2013-05-27 06:18:00,50.2,45.2,30.30,SW,227,0.0,0.0,83,0.00,BKN,,0.00,WeatherDisplay:10.37,2013-05-27 10:18:00,
2013-05-27 06:23:00,50.1,45.1,30.29,SW,228,0.0,0.0,83,0.00,BKN,,0.00,WeatherDisplay:10.37,2013-05-27 10:23:00,
2013-05-27 06:28:00,50.0,45.0,30.30,SW,228,0.0,0.0,83,0.00,BKN,,0.00,WeatherDisplay:10.37,2013-05-27 10:28:00,
2013-05-27 06:33:00,50.0,44.7,30.30,SW,228,0.0,0.0,82,0.00,BKN,,0.00,WeatherDisplay:10.37,2013-05-27 10:33:00,
2013-05-27 06:38:00,50.0,45.0,30.30,SW,227,0.0,0.0,83,0.00,BKN,,0.00,WeatherDisplay:10.37,2013-05-27 10:38:00,
2013-05-27 06:43:00,49.9,44.9,30.30,SW,227,0.0,0.0,83,0.00,BKN,,0.00,WeatherDisplay:10.37,2013-05-27 10:43:00,
2013-05-27 06:48:00,49.8,45.2,30.31,SW,227,0.0,0.0,84,0.00,BKN,,0.00,WeatherDisplay:10.37,2013-05-27 10:48:00,
2013-05-27 06:53:00,49.7,45.1,30.31,SW,228,0.0,0.0,84,0.00,BKN,,0.00,WeatherDisplay:10.37,2013-05-27 10:53:00,
2013-05-27 06:58:00,49.9,45.3,30.31,SW,227,0.0,0.0,84,0.00,BKN,,0.00,WeatherDisplay:10.37,2013-05-27 10:58:00,
2013-05-27 07:03:00,50.1,45.1,30.31,SW,227,0.0,0.0,83,0.00,BKN,,0.00,WeatherDisplay:10.37,2013-05-27 11:03:00,
2013-05-27 07:08:00,50.5,44.9,30.31,SSE,150,0.0,0.0,81,0.00,BKN,,0.00,WeatherDisplay:10.37,2013-05-27 11:08:00,
2013-05-27 07:13:00,50.9,45.3,30.31,SSE,150,0.0,0.0,81,0.00,BKN,,0.00,WeatherDisplay:10.37,2013-05-27 11:13:00,
2013-05-27 07:18:00,51.2,45.6,30.31,SSE,150,0.0,0.0,81,0.00,CLR,,0.00,WeatherDisplay:10.37,2013-05-27 11:18:00,
2013-05-27 07:23:00,51.6,46.0,30.31,SSE,150,0.0,0.0,81,0.00,CLR,,0.00,WeatherDisplay:10.37,2013-05-27 11:23:00,
2013-05-27 07:28:00,51.9,45.6,30.31,SSE,150,0.0,0.0,79,0.00,CLR,,0.00,WeatherDisplay:10.37,2013-05-27 11:28:00,
2013-05-27 07:33:00,52.2,45.5,30.31,SSE,150,0.0,0.0,78,0.00,CLR,,0.00,WeatherDisplay:10.37,2013-05-27 11:33:00,
2013-05-27 07:38:00,52.6,46.3,30.32,SSE,150,0.0,0.0,79,0.00,CLR,,0.00,WeatherDisplay:10.37,2013-05-27 11:38:00,
2013-05-27 07:43:00,52.8,46.1,30.32,SSE,151,0.0,0.0,78,0.00,CLR,,0.00,WeatherDisplay:10.37,2013-05-27 11:43:00,
2013-05-27 07:48:00,53.0,46.0,30.31,SSE,150,0.0,0.0,77,0.00,CLR,,0.00,WeatherDisplay:10.37,2013-05-27 11:48:00,
2013-05-27 07:53:00,53.2,46.2,30.31,SSE,150,0.0,0.0,77,0.00,CLR,,0.00,WeatherDisplay:10.37,2013-05-27 11:53:00,
2013-05-27 07:58:00,53.4,46.4,30.31,SSE,150,0.0,0.0,77,0.00,CLR,,0.00,WeatherDisplay:10.37,2013-05-27 11:58:00,
2013-05-27 08:03:00,53.7,46.3,30.32,SSE,152,0.0,0.0,76,0.00,CLR,,0.00,WeatherDisplay:10.37,2013-05-27 12:03:00,
2013-05-27 08:08:00,54.0,47.0,30.32,SSE,150,0.0,0.0,77,0.00,CLR,,0.00,WeatherDisplay:10.37,2013-05-27 12:08:00,
2013-05-27 08:13:00,54.5,47.1,30.32,SSE,152,0.0,0.0,76,0.00,CLR,,0.00,WeatherDisplay:10.37,2013-05-27 12:13:00,
2013-05-27 08:18:00,55.1,47.7,30.32,SSE,152,0.0,0.0,76,0.00,FEW,,0.00,WeatherDisplay:10.37,2013-05-27 12:18:00,
2013-05-27 08:23:00,55.7,47.5,30.32,SSE,152,0.0,0.0,74,0.00,FEW,,0.00,WeatherDisplay:10.37,2013-05-27 12:23:00,
2013-05-27 08:28:00,56.2,47.3,30.32,SSE,152,0.0,0.0,72,0.00,FEW,,0.00,WeatherDisplay:10.37,2013-05-27 12:28:00,
2013-05-27 08:33:00,56.8,47.1,30.31,SSE,152,0.0,0.0,70,0.00,FEW,,0.00,WeatherDisplay:10.37,2013-05-27 12:33:00,
2013-05-27 08:38:00,57.4,47.7,30.31,SSE,152,0.0,0.0,70,0.00,FEW,,0.00,WeatherDisplay:10.37,2013-05-27 12:38:00,
2013-05-27 08:43:00,57.9,48.2,30.31,SSW,208,0.0,0.0,70,0.00,FEW,,0.00,WeatherDisplay:10.37,2013-05-27 12:43:00,
2013-05-27 08:48:00,58.3,47.8,30.31,SSW,208,0.0,0.0,68,0.00,FEW,,0.00,WeatherDisplay:10.37,2013-05-27 12:48:00,
2013-05-27 08:53:00,58.8,47.5,30.32,SSW,208,0.0,0.0,66,0.00,FEW,,0.00,WeatherDisplay:10.37,2013-05-27 12:53:00,
2013-05-27 08:58:00,59.2,46.2,30.31,SSW,209,0.0,1.2,62,0.00,FEW,,0.00,WeatherDisplay:10.37,2013-05-27 12:58:00,
2013-05-27 09:03:00,59.8,46.7,30.31,SSW,208,0.0,0.0,62,0.00,FEW,,0.00,WeatherDisplay:10.37,2013-05-27 13:03:00,
2013-05-27 09:08:00,60.4,46.4,30.32,SSW,210,0.0,0.0,60,0.00,FEW,,0.00,WeatherDisplay:10.37,2013-05-27 13:08:00,
2013-05-27 09:13:00,61.0,48.3,30.32,SSW,210,0.0,0.0,63,0.00,FEW,,0.00,WeatherDisplay:10.37,2013-05-27 13:13:00,
2013-05-27 09:18:00,61.4,46.5,30.31,SSW,210,0.0,0.0,58,0.00,FEW,,0.00,WeatherDisplay:10.37,2013-05-27 13:18:00,
2013-05-27 09:23:00,61.9,45.1,30.32,West,259,0.0,0.0,54,0.00,FEW,,0.00,WeatherDisplay:10.37,2013-05-27 13:23:00,
2013-05-27 09:28:00,62.1,46.2,30.31,West,269,0.0,0.0,56,0.00,FEW,,0.00,WeatherDisplay:10.37,2013-05-27 13:28:00,
2013-05-27 09:33:00,62.3,45.4,30.31,West,277,0.0,1.2,54,0.00,FEW,,0.00,WeatherDisplay:10.37,2013-05-27 13:33:00,
2013-05-27 09:38:00,62.6,45.2,30.32,WNW,297,0.4,1.2,53,0.00,FEW,,0.00,WeatherDisplay:10.37,2013-05-27 13:38:00,
2013-05-27 09:43:00,62.7,46.8,30.32,WNW,295,0.0,0.0,56,0.00,FEW,,0.00,WeatherDisplay:10.37,2013-05-27 13:43:00,
2013-05-27 09:48:00,62.7,45.3,30.31,West,276,0.0,0.0,53,0.00,FEW,,0.00,WeatherDisplay:10.37,2013-05-27 13:48:00,
2013-05-27 09:53:00,62.7,43.3,30.31,West,276,0.0,0.0,49,0.00,FEW,,0.00,WeatherDisplay:10.37,2013-05-27 13:53:00,
2013-05-27 09:58:00,63.1,44.7,30.31,West,276,0.0,0.0,51,0.00,FEW,,0.00,WeatherDisplay:10.37,2013-05-27 13:58:00,
2013-05-27 10:03:00,63.5,43.4,30.31,West,276,0.0,0.0,48,0.00,FEW,,0.00,WeatherDisplay:10.37,2013-05-27 14:03:00,
2013-05-27 10:08:00,63.7,43.6,30.31,West,277,0.0,0.0,48,0.00,FEW,,0.00,WeatherDisplay:10.37,2013-05-27 14:08:00,
2013-05-27 10:13:00,63.8,43.2,30.31,West,277,0.0,0.0,47,0.00,FEW,,0.00,WeatherDisplay:10.37,2013-05-27 14:13:00,
2013-05-27 10:18:00,63.9,43.8,30.31,West,277,0.0,0.0,48,0.00,BKN,,0.00,WeatherDisplay:10.37,2013-05-27 14:18:00,
2013-05-27 10:23:00,64.1,44.5,30.30,West,276,0.0,0.0,49,0.00,BKN,,0.00,WeatherDisplay:10.37,2013-05-27 14:23:00,
2013-05-27 10:28:00,64.5,46.0,30.31,SW,226,0.0,0.0,51,0.00,BKN,,0.00,WeatherDisplay:10.37,2013-05-27 14:28:00,
2013-05-27 10:33:00,64.7,44.0,30.31,SSE,158,0.0,0.0,47,0.00,BKN,,0.00,WeatherDisplay:10.37,2013-05-27 14:33:00,
2013-05-27 10:38:00,64.4,44.3,30.31,South,173,0.0,0.0,48,0.00,BKN,,0.00,WeatherDisplay:10.37,2013-05-27 14:38:00,
2013-05-27 10:43:00,64.5,44.9,30.31,WSW,239,0.0,1.2,49,0.00,BKN,,0.00,WeatherDisplay:10.37,2013-05-27 14:43:00,
2013-05-27 10:48:00,64.5,43.8,30.31,West,259,1.7,3.5,47,0.00,BKN,,0.00,WeatherDisplay:10.37,2013-05-27 14:48:00,
2013-05-27 10:53:00,64.6,43.9,30.31,West,280,0.4,1.2,47,0.00,BKN,,0.00,WeatherDisplay:10.37,2013-05-27 14:53:00,
2013-05-27 10:58:00,64.6,45.5,30.30,WSW,251,0.0,0.0,50,0.00,BKN,,0.00,WeatherDisplay:10.37,2013-05-27 14:58:00,
2013-05-27 11:03:00,64.7,45.6,30.30,WSW,250,0.0,0.0,50,0.00,BKN,,0.00,WeatherDisplay:10.37,2013-05-27 15:03:00,
2013-05-27 11:08:00,64.5,45.4,30.30,WSW,250,0.0,0.0,50,0.00,BKN,,0.00,WeatherDisplay:10.37,2013-05-27 15:08:00,
2013-05-27 11:13:00,64.3,45.8,30.30,NW,307,0.5,1.2,51,0.00,BKN,,0.00,WeatherDisplay:10.37,2013-05-27 15:13:00,
2013-05-27 11:18:00,64.5,44.4,30.31,SSW,212,0.3,1.2,48,0.00,OVC,,0.00,WeatherDisplay:10.37,2013-05-27 15:18:00,
2013-05-27 11:23:00,64.7,45.6,30.30,East,79,0.0,0.0,50,0.00,OVC,,0.00,WeatherDisplay:10.37,2013-05-27 15:23:00,
2013-05-27 11:28:00,64.6,46.1,30.30,East,79,0.0,0.0,51,0.00,OVC,,0.00,WeatherDisplay:10.37,2013-05-27 15:28:00,
2013-05-27 11:33:00,64.9,47.4,30.30,East,79,0.0,0.0,53,0.00,OVC,,0.00,WeatherDisplay:10.37,2013-05-27 15:33:00,
2013-05-27 11:38:00,65.4,45.7,30.30,WSW,246,0.1,1.2,49,0.00,OVC,,0.00,WeatherDisplay:10.37,2013-05-27 15:38:00,
2013-05-27 11:43:00,66.3,46.0,30.30,West,263,1.2,3.5,48,0.00,OVC,,0.00,WeatherDisplay:10.37,2013-05-27 15:43:00,
2013-05-27 11:48:00,66.4,45.0,30.30,WSW,256,0.1,1.2,46,0.00,OVC,,0.00,WeatherDisplay:10.37,2013-05-27 15:48:00,
2013-05-27 11:53:00,66.9,47.1,30.30,NNW,333,0.1,1.2,49,0.00,OVC,,0.00,WeatherDisplay:10.37,2013-05-27 15:53:00,
2013-05-27 11:58:00,67.4,45.9,30.30,East,99,0.2,1.2,46,0.00,OVC,,0.00,WeatherDisplay:10.37,2013-05-27 15:58:00,
2013-05-27 12:03:00,67.3,46.4,30.30,East,94,0.0,0.0,47,0.00,BKN,,0.00,WeatherDisplay:10.37,2013-05-27 16:03:00,
2013-05-27 12:08:00,67.5,46.6,30.30,ENE,77,0.0,0.0,47,0.00,BKN,,0.00,WeatherDisplay:10.37,2013-05-27 16:08:00,
2013-05-27 12:13:00,67.7,47.3,30.30,ENE,77,0.0,0.0,48,0.00,BKN,,0.00,WeatherDisplay:10.37,2013-05-27 16:13:00,
2013-05-27 12:18:00,68.5,46.9,30.30,East,90,0.0,1.2,46,0.00,BKN,,0.00,WeatherDisplay:10.37,2013-05-27 16:18:00,
2013-05-27 12:23:00,68.5,47.5,30.29,SSW,203,0.0,0.0,47,0.00,BKN,,0.00,WeatherDisplay:10.37,2013-05-27 16:23:00,
2013-05-27 12:28:00,68.8,46.6,30.29,SSW,203,0.0,0.0,45,0.00,BKN,,0.00,WeatherDisplay:10.37,2013-05-27 16:28:00,
2013-05-27 12:33:00,69.4,48.3,30.29,SSW,194,0.0,0.0,47,0.00,BKN,,0.00,WeatherDisplay:10.37,2013-05-27 16:33:00,
2013-05-27 12:38:00,69.9,47.6,30.29,North,1,0.1,1.2,45,0.00,BKN,,0.00,WeatherDisplay:10.37,2013-05-27 16:38:00,
2013-05-27 12:43:00,69.9,47.6,30.29,SE,127,0.1,1.0,45,0.00,BKN,,0.00,WeatherDisplay:10.37,2013-05-27 16:43:00,
2013-05-27 12:48:00,70.2,49.6,30.29,NNW,347,0.6,2.3,48,0.00,BKN,,0.00,WeatherDisplay:10.37,2013-05-27 16:48:00,
2013-05-27 12:53:00,70.9,49.1,30.28,ESE,114,0.6,1.2,46,0.00,BKN,,0.00,WeatherDisplay:10.37,2013-05-27 16:53:00,
2013-05-27 12:58:00,71.1,47.5,30.28,South,182,0.6,2.3,43,0.00,BKN,,0.00,WeatherDisplay:10.37,2013-05-27 16:58:00,
2013-05-27 13:03:00,71.2,49.4,30.28,NE,45,1.1,3.5,46,0.00,BKN,,0.00,WeatherDisplay:10.37,2013-05-27 17:03:00,
2013-05-27 13:08:00,71.8,50.5,30.28,NNW,328,0.2,1.2,47,0.00,BKN,,0.00,WeatherDisplay:10.37,2013-05-27 17:08:00,
2013-05-27 13:13:00,72.8,49.0,30.27,NE,50,0.6,2.3,43,0.00,BKN,,0.00,WeatherDisplay:10.37,2013-05-27 17:13:00,
2013-05-27 13:18:00,73.2,50.6,30.27,South,170,0.3,1.2,45,0.00,BKN,,0.00,WeatherDisplay:10.37,2013-05-27 17:18:00,
2013-05-27 13:23:00,73.4,48.3,30.27,SE,141,0.2,1.2,41,0.00,BKN,,0.00,WeatherDisplay:10.37,2013-05-27 17:23:00,
2013-05-27 13:28:00,73.3,50.1,30.27,SSW,203,0.0,0.0,44,0.00,BKN,,0.00,WeatherDisplay:10.37,2013-05-27 17:28:00,
2013-05-27 13:33:00,73.9,50.0,30.27,East,89,0.4,1.2,43,0.00,BKN,,0.00,WeatherDisplay:10.37,2013-05-27 17:33:00,
2013-05-27 13:38:00,73.9,51.8,30.26,SSW,204,0.6,2.3,46,0.00,BKN,,0.00,WeatherDisplay:10.37,2013-05-27 17:38:00,
2013-05-27 13:43:00,73.3,51.8,30.26,WSW,240,0.4,1.2,47,0.00,BKN,,0.00,WeatherDisplay:10.37,2013-05-27 17:43:00,
2013-05-27 13:48:00,73.2,50.0,30.26,WSW,250,0.1,1.2,44,0.00,BKN,,0.00,WeatherDisplay:10.37,2013-05-27 17:48:00,
2013-05-27 13:53:00,74.1,52.0,30.26,WSW,246,0.2,1.2,46,0.00,BKN,,0.00,WeatherDisplay:10.37,2013-05-27 17:53:00,
2013-05-27 13:58:00,74.6,53.0,30.26,NE,44,0.7,2.3,47,0.00,BKN,,0.00,WeatherDisplay:10.37,2013-05-27 17:58:00,
2013-05-27 14:03:00,74.1,50.8,30.26,WSW,240,0.7,3.5,44,0.00,FEW,,0.00,WeatherDisplay:10.37,2013-05-27 18:03:00,
2013-05-27 14:08:00,73.5,50.9,30.25,North,9,2.1,3.5,45,0.00,FEW,,0.00,WeatherDisplay:10.37,2013-05-27 18:08:00,
2013-05-27 14:13:00,73.9,52.4,30.25,NE,48,0.8,1.2,47,0.00,FEW,,0.00,WeatherDisplay:10.37,2013-05-27 18:13:00,
2013-05-27 14:18:00,73.9,53.5,30.25,WSW,255,0.5,3.0,49,0.00,FEW,,0.00,WeatherDisplay:10.37,2013-05-27 18:18:00,
2013-05-27 14:23:00,74.3,52.8,30.25,West,279,0.5,2.3,47,0.00,FEW,,0.00,WeatherDisplay:10.37,2013-05-27 18:23:00,
2013-05-27 14:28:00,75.0,52.2,30.25,East,86,0.7,2.3,45,0.00,FEW,,0.00,WeatherDisplay:10.37,2013-05-27 18:28:00,
2013-05-27 14:33:00,75.2,53.0,30.24,East,79,0.3,1.2,46,0.00,FEW,,0.00,WeatherDisplay:10.37,2013-05-27 18:33:00,
2013-05-27 14:38:00,75.7,53.4,30.24,NW,305,0.8,2.3,46,0.00,FEW,,0.00,WeatherDisplay:10.37,2013-05-27 18:38:00,
2013-05-27 14:43:00,76.1,53.8,30.24,NNW,340,0.2,1.2,46,0.00,FEW,,0.00,WeatherDisplay:10.37,2013-05-27 18:43:00,
2013-05-27 14:48:00,76.8,53.2,30.24,NW,316,0.6,2.3,44,0.00,FEW,,0.00,WeatherDisplay:10.37,2013-05-27 18:48:00,
2013-05-27 14:53:00,76.3,55.2,30.23,North,356,0.0,0.0,48,0.00,FEW,,0.00,WeatherDisplay:10.37,2013-05-27 18:53:00,
2013-05-27 14:58:00,76.2,55.1,30.23,SE,140,0.0,0.0,48,0.00,FEW,,0.00,WeatherDisplay:10.37,2013-05-27 18:58:00,
2013-05-27 15:03:00,76.0,54.9,30.23,North,352,0.3,3.5,48,0.00,FEW,,0.00,WeatherDisplay:10.37,2013-05-27 19:03:00,
2013-05-27 15:08:00,77.1,55.9,30.23,NE,40,0.3,2.3,48,0.00,FEW,,0.00,WeatherDisplay:10.37,2013-05-27 19:08:00,
2013-05-27 15:13:00,76.4,55.3,30.22,East,101,0.3,1.2,48,0.00,FEW,,0.00,WeatherDisplay:10.37,2013-05-27 19:13:00,
2013-05-27 15:18:00,77.1,54.1,30.22,WSW,239,2.2,4.6,45,0.00,FEW,,0.00,WeatherDisplay:10.37,2013-05-27 19:18:00,
2013-05-27 15:23:00,77.7,55.9,30.22,East,93,1.2,3.5,47,0.00,FEW,,0.00,WeatherDisplay:10.37,2013-05-27 19:23:00,
2013-05-27 15:28:00,77.2,56.6,30.22,East,98,1.0,2.3,49,0.00,FEW,,0.00,WeatherDisplay:10.37,2013-05-27 19:28:00,
2013-05-27 15:33:00,77.9,55.5,30.22,East,82,0.7,2.3,46,0.00,FEW,,0.00,WeatherDisplay:10.37,2013-05-27 19:33:00,
2013-05-27 15:38:00,77.4,55.6,30.22,SW,225,1.4,2.3,47,0.00,FEW,,0.00,WeatherDisplay:10.37,2013-05-27 19:38:00,
2013-05-27 15:43:00,77.4,55.0,30.21,SSE,153,1.0,2.3,46,0.00,FEW,,0.00,WeatherDisplay:10.37,2013-05-27 19:43:00,
2013-05-27 15:48:00,76.7,55.5,30.21,NW,321,0.5,2.3,48,0.00,FEW,,0.00,WeatherDisplay:10.37,2013-05-27 19:48:00,
2013-05-27 15:53:00,76.6,56.0,30.21,North,3,1.1,2.3,49,0.00,FEW,,0.00,WeatherDisplay:10.37,2013-05-27 19:53:00,
2013-05-27 15:58:00,76.8,57.3,30.21,NE,51,0.5,2.3,51,0.00,FEW,,0.00,WeatherDisplay:10.37,2013-05-27 19:58:00,
2013-05-27 16:03:00,76.6,57.1,30.21,East,84,0.4,1.2,51,0.00,SCT,,0.00,WeatherDisplay:10.37,2013-05-27 20:03:00,
2013-05-27 16:08:00,77.5,57.4,30.20,East,101,0.8,3.5,50,0.00,SCT,,0.00,WeatherDisplay:10.37,2013-05-27 20:08:00,
2013-05-27 16:13:00,77.9,56.0,30.20,NNE,20,1.7,3.5,47,0.00,SCT,,0.00,WeatherDisplay:10.37,2013-05-27 20:13:00,
2013-05-27 16:18:00,78.0,58.4,30.20,NW,308,0.2,1.2,51,0.00,SCT,,0.00,WeatherDisplay:10.37,2013-05-27 20:18:00,
2013-05-27 16:23:00,78.9,59.8,30.20,West,280,0.1,1.2,52,0.00,SCT,,0.00,WeatherDisplay:10.37,2013-05-27 20:23:00,
2013-05-27 16:28:00,79.3,57.9,30.20,NNE,33,0.6,1.2,48,0.00,SCT,,0.00,WeatherDisplay:10.37,2013-05-27 20:28:00,
2013-05-27 16:33:00,79.3,60.1,30.20,WSW,239,0.2,1.2,52,0.00,SCT,,0.00,WeatherDisplay:10.37,2013-05-27 20:33:00,
2013-05-27 16:38:00,78.9,58.1,30.19,WSW,257,1.1,3.5,49,0.00,SCT,,0.00,WeatherDisplay:10.37,2013-05-27 20:38:00,
2013-05-27 16:43:00,78.6,57.8,30.19,West,274,4.1,4.6,49,0.00,SCT,,0.00,WeatherDisplay:10.37,2013-05-27 20:43:00,
2013-05-27 16:48:00,79.0,59.3,30.19,NW,311,1.2,3.5,51,0.00,SCT,,0.00,WeatherDisplay:10.37,2013-05-27 20:48:00,
2013-05-27 16:53:00,79.4,58.6,30.19,ENE,74,2.1,3.5,49,0.00,SCT,,0.00,WeatherDisplay:10.37,2013-05-27 20:53:00,
2013-05-27 16:58:00,79.4,59.7,30.19,SSW,207,1.7,3.5,51,0.00,SCT,,0.00,WeatherDisplay:10.37,2013-05-27 20:58:00,
2013-05-27 17:03:00,79.6,60.4,30.19,West,274,0.6,2.3,52,0.00,SCT,,0.00,WeatherDisplay:10.37,2013-05-27 21:03:00,
2013-05-27 17:08:00,80.3,60.0,30.19,NNE,13,0.8,2.3,50,0.00,SCT,,0.00,WeatherDisplay:10.37,2013-05-27 21:08:00,
2013-05-27 17:13:00,80.3,60.0,30.19,SW,226,0.7,1.2,50,0.00,SCT,,0.00,WeatherDisplay:10.37,2013-05-27 21:13:00,
2013-05-27 17:18:00,79.9,60.2,30.19,North,1,0.6,1.2,51,0.00,SCT,,0.00,WeatherDisplay:10.37,2013-05-27 21:18:00,
2013-05-27 17:23:00,79.3,59.6,30.19,NW,316,0.4,2.3,51,0.00,SCT,,0.00,WeatherDisplay:10.37,2013-05-27 21:23:00,
2013-05-27 17:28:00,79.1,60.0,30.19,NE,39,0.4,2.3,52,0.00,SCT,,0.00,WeatherDisplay:10.37,2013-05-27 21:28:00,
2013-05-27 17:33:00,77.9,59.4,30.19,NW,316,1.3,2.3,53,0.00,SCT,,0.00,WeatherDisplay:10.37,2013-05-27 21:33:00,
2013-05-27 17:38:00,77.7,59.7,30.19,SSE,149,0.0,0.0,54,0.00,SCT,,0.00,WeatherDisplay:10.37,2013-05-27 21:38:00,
2013-05-27 17:43:00,77.7,59.7,30.19,WNW,293,0.6,3.0,54,0.00,SCT,,0.00,WeatherDisplay:10.37,2013-05-27 21:43:00,
2013-05-27 17:48:00,77.4,60.5,30.19,NNW,335,0.0,1.2,56,0.00,SCT,,0.00,WeatherDisplay:10.37,2013-05-27 21:48:00,
2013-05-27 17:53:00,77.1,60.2,30.19,SW,217,0.0,1.2,56,0.00,SCT,,0.00,WeatherDisplay:10.37,2013-05-27 21:53:00,
2013-05-27 17:58:00,77.1,59.7,30.19,SE,146,0.0,0.0,55,0.00,SCT,,0.00,WeatherDisplay:10.37,2013-05-27 21:58:00,
2013-05-27 18:03:00,76.8,59.4,30.19,WSW,239,0.9,3.5,55,0.00,SCT,,0.00,WeatherDisplay:10.37,2013-05-27 22:03:00,
2013-05-27 18:08:00,76.2,59.4,30.19,SE,132,0.8,2.3,56,0.00,SCT,,0.00,WeatherDisplay:10.37,2013-05-27 22:08:00,
2013-05-27 18:13:00,76.0,59.2,30.19,NW,316,0.4,2.3,56,0.00,SCT,,0.00,WeatherDisplay:10.37,2013-05-27 22:13:00,
2013-05-27 18:18:00,75.9,59.6,30.19,WNW,284,0.1,1.2,57,0.00,SCT,,0.00,WeatherDisplay:10.37,2013-05-27 22:18:00,
2013-05-27 18:23:00,76.4,60.0,30.18,East,84,0.0,0.0,57,0.00,SCT,,0.00,WeatherDisplay:10.37,2013-05-27 22:23:00,
2013-05-27 18:28:00,76.9,60.5,30.18,NNW,333,0.0,0.0,57,0.00,SCT,,0.00,WeatherDisplay:10.37,2013-05-27 22:28:00,
2013-05-27 18:33:00,76.9,60.5,30.18,ENE,68,0.1,1.2,57,0.00,SCT,,0.00,WeatherDisplay:10.37,2013-05-27 22:33:00,
2013-05-27 18:38:00,76.9,61.0,30.18,NNE,20,0.0,0.0,58,0.00,SCT,,0.00,WeatherDisplay:10.37,2013-05-27 22:38:00,
2013-05-27 18:43:00,76.7,60.8,30.18,NW,316,0.3,2.0,58,0.00,SCT,,0.00,WeatherDisplay:10.37,2013-05-27 22:43:00,
2013-05-27 18:48:00,76.3,60.4,30.18,West,274,0.4,2.3,58,0.00,SCT,,0.00,WeatherDisplay:10.37,2013-05-27 22:48:00,
2013-05-27 18:53:00,76.3,60.4,30.18,South,191,0.0,0.0,58,0.00,SCT,,0.00,WeatherDisplay:10.37,2013-05-27 22:53:00,
2013-05-27 18:58:00,77.0,61.1,30.18,SW,235,0.1,1.2,58,0.00,SCT,,0.00,WeatherDisplay:10.37,2013-05-27 22:58:00,
2013-05-27 19:03:00,77.1,60.2,30.17,SSW,202,0.0,1.2,56,0.00,SCT,,0.00,WeatherDisplay:10.37,2013-05-27 23:03:00,
2013-05-27 19:08:00,77.4,60.5,30.17,WNW,301,0.2,1.2,56,0.00,SCT,,0.00,WeatherDisplay:10.37,2013-05-27 23:08:00,
2013-05-27 19:13:00,77.2,60.8,30.17,NW,311,0.5,1.2,57,0.00,SCT,,0.00,WeatherDisplay:10.37,2013-05-27 23:13:00,
2013-05-27 19:18:00,77.0,61.1,30.17,SW,231,0.7,2.3,58,0.00,SCT,,0.00,WeatherDisplay:10.37,2013-05-27 23:18:00,
2013-05-27 19:23:00,76.7,60.3,30.17,SSW,212,0.3,1.2,57,0.00,SCT,,0.00,WeatherDisplay:10.37,2013-05-27 23:23:00,
2013-05-27 19:28:00,76.2,60.3,30.17,WSW,243,0.1,1.2,58,0.00,SCT,,0.00,WeatherDisplay:10.37,2013-05-27 23:28:00,
2013-05-27 19:33:00,75.8,60.0,30.17,WSW,244,0.0,0.0,58,0.00,SCT,,0.00,WeatherDisplay:10.37,2013-05-27 23:33:00,
2013-05-27 19:38:00,75.8,60.0,30.17,West,269,0.0,1.0,58,0.00,SCT,,0.00,WeatherDisplay:10.37,2013-05-27 23:38:00,
2013-05-27 19:43:00,75.8,60.4,30.17,WNW,302,0.0,1.2,59,0.00,SCT,,0.00,WeatherDisplay:10.37,2013-05-27 23:43:00,
2013-05-27 19:48:00,75.3,60.5,30.17,WNW,302,0.1,1.2,60,0.00,SCT,,0.00,WeatherDisplay:10.37,2013-05-27 23:48:00,
2013-05-27 19:53:00,74.8,60.4,30.17,WNW,302,0.1,1.2,61,0.00,SCT,,0.00,WeatherDisplay:10.37,2013-05-27 23:53:00,
2013-05-27 19:58:00,74.1,59.8,30.17,WNW,302,0.0,0.0,61,0.00,SCT,,0.00,WeatherDisplay:10.37,2013-05-27 23:58:00,
2013-05-27 20:03:00,73.6,59.8,30.17,WNW,302,0.0,0.0,62,0.00,SCT,,0.00,WeatherDisplay:10.37,2013-05-28 00:03:00,
2013-05-27 20:08:00,73.1,59.8,30.17,WNW,302,0.0,0.0,63,0.00,SCT,,0.00,WeatherDisplay:10.37,2013-05-28 00:08:00,
2013-05-27 20:13:00,72.6,59.7,30.17,NW,305,0.0,0.0,64,0.00,SCT,,0.00,WeatherDisplay:10.37,2013-05-28 00:13:00,
2013-05-27 20:18:00,72.1,59.7,30.17,NW,311,0.0,0.0,65,0.00,SCT,,0.00,WeatherDisplay:10.37,2013-05-28 00:18:00,
2013-05-27 20:23:00,71.7,59.7,30.17,NW,312,0.0,0.0,66,0.00,SCT,,0.00,WeatherDisplay:10.37,2013-05-28 00:23:00,
2013-05-27 20:28:00,71.3,59.8,30.17,NW,312,0.0,0.0,67,0.00,SCT,,0.00,WeatherDisplay:10.37,2013-05-28 00:28:00,
2013-05-27 20:33:00,70.9,59.8,30.18,NW,311,0.0,0.0,68,0.00,SCT,,0.00,WeatherDisplay:10.37,2013-05-28 00:33:00,
2013-05-27 20:38:00,70.3,59.6,30.18,NW,311,0.0,0.0,69,0.00,SCT,,0.00,WeatherDisplay:10.37,2013-05-28 00:38:00,
2013-05-27 20:43:00,70.0,59.8,30.18,NW,311,0.0,0.0,70,0.00,SCT,,0.00,WeatherDisplay:10.37,2013-05-28 00:43:00,
2013-05-27 20:48:00,69.7,59.9,30.18,NW,311,0.0,0.0,71,0.00,SCT,,0.00,WeatherDisplay:10.37,2013-05-28 00:48:00,
2013-05-27 20:53:00,69.3,58.7,30.18,NW,311,0.0,0.0,69,0.00,SCT,,0.00,WeatherDisplay:10.37,2013-05-28 00:53:00,
2013-05-27 20:58:00,69.0,58.4,30.19,NW,311,0.0,0.0,69,0.00,SCT,,0.00,WeatherDisplay:10.37,2013-05-28 00:58:00,
2013-05-27 21:03:00,68.8,58.6,30.19,NW,311,0.0,0.0,70,0.00,BKN,,0.00,WeatherDisplay:10.37,2013-05-28 01:03:00,
2013-05-27 21:08:00,68.6,59.2,30.19,NW,311,0.0,0.0,72,0.00,BKN,,0.00,WeatherDisplay:10.37,2013-05-28 01:08:00,
2013-05-27 21:13:00,68.5,59.5,30.19,NW,312,0.0,0.0,73,0.00,BKN,,0.00,WeatherDisplay:10.37,2013-05-28 01:13:00,
2013-05-27 21:18:00,68.5,59.5,30.20,NW,311,0.0,0.0,73,0.00,BKN,,0.00,WeatherDisplay:10.37,2013-05-28 01:18:00,
2013-05-27 21:23:00,68.4,59.0,30.20,NW,311,0.0,0.0,72,0.00,BKN,,0.00,WeatherDisplay:10.37,2013-05-28 01:23:00,
2013-05-27 21:28:00,68.4,59.0,30.20,NW,311,0.0,0.0,72,0.00,BKN,,0.00,WeatherDisplay:10.37,2013-05-28 01:28:00,
2013-05-27 21:33:00,68.2,59.2,30.20,NW,311,0.0,0.0,73,0.00,BKN,,0.00,WeatherDisplay:10.37,2013-05-28 01:33:00,
2013-05-27 21:38:00,67.9,58.9,30.20,NW,311,0.0,0.0,73,0.00,BKN,,0.00,WeatherDisplay:10.37,2013-05-28 01:38:00,
2013-05-27 21:43:00,67.5,58.9,30.20,NW,311,0.0,0.0,74,0.00,BKN,,0.00,WeatherDisplay:10.37,2013-05-28 01:43:00,
2013-05-27 21:48:00,67.1,58.9,30.20,NW,312,0.0,0.0,75,0.00,BKN,,0.00,WeatherDisplay:10.37,2013-05-28 01:48:00,
2013-05-27 21:53:00,66.8,58.6,30.20,NW,312,0.0,0.0,75,0.00,BKN,,0.00,WeatherDisplay:10.37,2013-05-28 01:53:00,
2013-05-27 21:58:00,66.5,58.7,30.21,NW,311,0.0,0.0,76,0.00,BKN,,0.00,WeatherDisplay:10.37,2013-05-28 01:58:00,
2013-05-27 22:03:00,66.1,58.3,30.21,NW,311,0.0,0.0,76,0.00,FEW,,0.00,WeatherDisplay:10.37,2013-05-28 02:03:00,
2013-05-27 22:08:00,65.9,58.5,30.21,NW,311,0.0,0.0,77,0.00,FEW,,0.00,WeatherDisplay:10.37,2013-05-28 02:08:00,
2013-05-27 22:13:00,65.8,58.4,30.22,NW,311,0.0,0.0,77,0.00,FEW,,0.00,WeatherDisplay:10.37,2013-05-28 02:13:00,
2013-05-27 22:18:00,65.6,58.2,30.22,NW,311,0.0,0.0,77,0.00,FEW,,0.00,WeatherDisplay:10.37,2013-05-28 02:18:00,
2013-05-27 22:23:00,65.5,57.7,30.22,NW,312,0.0,0.0,76,0.00,FEW,,0.00,WeatherDisplay:10.37,2013-05-28 02:23:00,
2013-05-27 22:28:00,65.5,58.1,30.22,NW,311,0.0,0.0,77,0.00,FEW,,0.00,WeatherDisplay:10.37,2013-05-28 02:28:00,
2013-05-27 22:33:00,65.6,58.2,30.22,NW,311,0.0,0.0,77,0.00,FEW,,0.00,WeatherDisplay:10.37,2013-05-28 02:33:00,
2013-05-27 22:38:00,65.6,57.8,30.22,NW,311,0.0,0.0,76,0.00,FEW,,0.00,WeatherDisplay:10.37,2013-05-28 02:38:00,
2013-05-27 22:43:00,65.6,57.8,30.22,NW,311,0.0,0.0,76,0.00,FEW,,0.00,WeatherDisplay:10.37,2013-05-28 02:43:00,
2013-05-27 22:48:00,65.6,57.8,30.22,NW,311,0.0,0.0,76,0.00,FEW,,0.00,WeatherDisplay:10.37,2013-05-28 02:48:00,
2013-05-27 22:53:00,65.6,57.5,30.22,NW,311,0.0,0.0,75,0.00,FEW,,0.00,WeatherDisplay:10.37,2013-05-28 02:53:00,
2013-05-27 22:58:00,65.5,57.4,30.22,NW,311,0.0,0.0,75,0.00,FEW,,0.00,WeatherDisplay:10.37,2013-05-28 02:58:00,
2013-05-27 23:03:00,65.5,57.4,30.22,NW,311,0.0,0.0,75,0.00,FEW,,0.00,WeatherDisplay:10.37,2013-05-28 03:03:00,
2013-05-27 23:08:00,65.4,57.3,30.22,NW,311,0.0,0.0,75,0.00,FEW,,0.00,WeatherDisplay:10.37,2013-05-28 03:08:00,
2013-05-27 23:13:00,65.4,57.3,30.22,NW,311,0.0,0.0,75,0.00,FEW,,0.00,WeatherDisplay:10.37,2013-05-28 03:13:00,
2013-05-27 23:18:00,65.3,56.8,30.22,SSW,204,0.1,1.2,74,0.00,BKN,,0.00,WeatherDisplay:10.37,2013-05-28 03:18:00,
2013-05-27 23:23:00,65.2,57.1,30.22,SSW,204,0.0,0.0,75,0.00,BKN,,0.00,WeatherDisplay:10.37,2013-05-28 03:23:00,
2013-05-27 23:28:00,65.2,57.1,30.22,WSW,249,0.0,1.2,75,0.00,BKN,,0.00,WeatherDisplay:10.37,2013-05-28 03:28:00,
2013-05-27 23:33:00,65.0,56.9,30.22,WSW,249,0.0,0.0,75,0.00,BKN,,0.00,WeatherDisplay:10.37,2013-05-28 03:33:00,
2013-05-27 23:38:00,64.8,57.1,30.22,WSW,249,0.0,0.0,76,0.00,BKN,,0.00,WeatherDisplay:10.37,2013-05-28 03:38:00,
2013-05-27 23:43:00,64.6,57.2,30.22,WSW,250,0.0,0.0,77,0.00,BKN,,0.00,WeatherDisplay:10.37,2013-05-28 03:43:00,
2013-05-27 23:48:00,64.4,57.0,30.22,WSW,246,0.1,1.2,77,0.00,BKN,,0.00,WeatherDisplay:10.37,2013-05-28 03:48:00,
2013-05-27 23:53:00,64.3,56.9,30.22,WSW,246,0.0,0.0,77,0.00,BKN,,0.00,WeatherDisplay:10.37,2013-05-28 03:53:00,
2013-05-27 23:58:00,64.2,56.8,30.22,North,7,0.0,0.0,77,0.00,BKN,,0.00,WeatherDisplay:10.37,2013-05-28 03:58:00,